Richland, OR (97870)

12:09 PM PST on December 08, 2016 (GMT -0800)
New Bridge | | Change Station
Active Advisory: Winter Weather Advisory

Elev 2379 ft 44.80 °N, 117.19 °W | Updated 2 minutes ago

Overcast
Overcast
21.4 °F
Feels Like 21 °F
N
2.0
Wind Variable Wind from South

Today
High -- | Low -- °F
--% Chance of Precip.
Yesterday
High -- | Low -- °F
Precip. -- in
Pressure 30.13 in
Visibility 1.0 miles
Clouds Mostly Cloudy 2000 ft
Overcast 3000 ft
Windchill 21 °F
Dew Point 19 °F
Humidity 89%
Rainfall 0.00 in
Snow Depth Not available.
7:13 AM 4:07 PM
Waxing Gibbous, 66% visible
SPECI KBKE 082005Z AUTO 08012KT 1SM -SN BR BKN020 OVC030 M07/M09 A3013 RMK AO2 P0000 T10721094
Pressure 30.13 in
Visibility 1.0 miles
Clouds Mostly Cloudy 2000 ft
Overcast 3000 ft
Windchill 21 °F
Dew Point 19 °F
Humidity 89%
Rainfall 0.00 in
Snow Depth Not available.
7:13 AM 4:07 PM
Waxing Gibbous, 66% visible
SPECI KBKE 082005Z AUTO 08012KT 1SM -SN BR BKN020 OVC030 M07/M09 A3013 RMK AO2 P0000 T10721094

10-Day Weather Forecast

Almanac

Astronomy

Dec. 08, 2016 Rise Set
Actual Time
Civil Twilight
Nautical Twilight
Astronomical Twilight
Moon
Length of Visible Light
Length of Day
Tomorrow will be .
, % of the Moon is Illuminated

Today's Extremes

State Highs State Lows

Community

WunderPhotos

Upload Photos

1,956,277 photos uploaded!

WunderBlog® & News

Nearby

Air Quality

  Air Quality AQ Index Pollutant
Not available.

Snow Depth

Station Depth Elevation

Earthquake Activity

City Distance Mag. Time & Date
Minimum magnitude displayed is 2.5.

Coastal Water Temperatures

Place Temperature

Stations

Nearby Weather Stations

Station Location Temp. Windchill Dew Point Humidity Wind Precip. Elev Updated Type
                   

Watches & Warnings

Winter Weather Advisory
Issued: 9:33 AM PST Dec. 8, 2016 – National Weather Service

... Winter Weather Advisory remains in effect until 4 am PST
Saturday...

* snow amounts... 3 to 6 inches in the valleys and 6 to 12 inches
with ... locally higher amounts... in the mountains.

* Snow levels... valley floors. Snow may mix with or change to
rain below 3500 feet Friday afternoon and evening.

* Impacts... snow accumulation on roads will make driving
difficult... especially during the commute this afternoon.

Precautionary/preparedness actions...

A Winter Weather Advisory for snow means that periods of snow
will primarily cause travel difficulties. Be prepared for snow
covered roads and limited visibilities... and use caution while
driving. Travel in the mountains and backcountry is not
recommended without proper equipment and adequate provisions.
Remember that cell phone communication is limited by terrain.